Time;durP1;ratioP1;P1;durP2;ratioP2;P2;SDS_P1;SDS_P2;PMS_P1;PMS_P2;Temp;Humidity;BMP_temperature;BMP_pressure;BME280_temperature;BME280_humidity;BME280_pressure;Samples;Min_cycle;Max_cycle;Signal;HPM_P1;HPM_P2
2022/08/30 00:01:32;;;;;;;2.42;1.73;;;21.50;99.90;;;;;;1029118;28;20796;-68
2022/08/30 00:02:03;;;;;;;2.63;1.70;;;21.50;99.90;;;;;;1030022;28;20584;-68
2022/08/30 00:02:34;;;;;;;4.27;1.60;;;21.50;99.90;;;;;;1027622;28;20378;-68
2022/08/30 00:03:07;;;;;;;2.30;1.60;;;21.50;99.90;;;;;;1025978;28;20027;-68
2022/08/30 00:03:45;;;;;;;4.13;1.70;;;21.50;99.90;;;;;;1025645;28;20022;-67
2022/08/30 00:04:16;;;;;;;2.92;1.66;;;21.50;99.90;;;;;;1029962;28;20027;-67
2022/08/30 00:04:47;;;;;;;3.67;1.40;;;21.50;99.90;;;;;;1029824;28;20118;-68
2022/08/30 00:05:17;;;;;;;1.98;1.70;;;21.50;99.90;;;;;;1029806;28;20085;-68
2022/08/30 00:05:48;;;;;;;1.47;1.20;;;21.50;99.90;;;;;;1028973;28;20032;-68
2022/08/30 00:06:19;;;;;;;1.95;1.52;;;21.50;99.90;;;;;;1026107;28;20098;-68
2022/08/30 00:06:50;;;;;;;2.25;1.70;;;21.50;99.90;;;;;;1025789;28;20065;-68
2022/08/30 00:07:22;;;;;;;2.50;1.53;;;21.50;99.90;;;;;;1031565;28;20806;-68
2022/08/30 00:07:52;;;;;;;3.13;1.50;;;21.50;99.90;;;;;;1042167;28;20023;-68
2022/08/30 00:08:23;;;;;;;1.70;1.13;;;21.50;99.90;;;;;;1042457;28;20021;-68
2022/08/30 00:08:54;;;;;;;3.03;1.80;;;21.50;99.90;;;;;;1039988;28;20032;-68
2022/08/30 00:09:25;;;;;;;3.28;1.42;;;21.50;99.90;;;;;;1042777;28;20092;-68
2022/08/30 00:09:55;;;;;;;2.03;1.30;;;21.50;99.90;;;;;;1042958;28;20013;-68
2022/08/30 00:10:27;;;;;;;2.13;1.70;;;21.50;99.90;;;;;;1042797;28;20426;-68
2022/08/30 00:10:59;;;;;;;1.42;1.25;;;21.50;99.90;;;;;;1042661;28;20021;-68
2022/08/30 00:11:29;;;;;;;3.05;1.63;;;21.50;99.90;;;;;;1042852;28;20558;-68
2022/08/30 00:12:00;;;;;;;3.20;1.63;;;21.50;99.90;;;;;;1042645;28;20829;-69
2022/08/30 00:12:31;;;;;;;2.30;1.58;;;21.50;99.90;;;;;;1042659;28;20109;-69
2022/08/30 00:13:03;;;;;;;2.20;1.38;;;21.50;99.90;;;;;;1042668;28;20021;-67
2022/08/30 00:13:37;;;;;;;3.38;1.42;;;21.50;99.90;;;;;;1038297;28;20028;-68
2022/08/30 00:14:07;;;;;;;2.10;1.40;;;21.50;99.90;;;;;;1038031;28;20087;-67
2022/08/30 00:14:38;;;;;;;2.60;1.70;;;21.50;99.90;;;;;;1038390;28;20092;-67
2022/08/30 00:15:11;;;;;;;2.27;1.60;;;21.40;99.90;;;;;;1038806;28;20448;-68
2022/08/30 00:15:42;;;;;;;2.55;1.35;;;21.40;99.90;;;;;;1038843;28;20195;-68
2022/08/30 00:16:13;;;;;;;2.35;1.48;;;21.40;99.90;;;;;;1042423;28;20082;-68
2022/08/30 00:16:43;;;;;;;3.77;1.70;;;21.40;99.90;;;;;;1042740;28;20433;-68
2022/08/30 00:17:14;;;;;;;1.80;1.40;;;21.40;99.90;;;;;;1042468;28;20027;-68
2022/08/30 00:17:46;;;;;;;2.28;1.42;;;21.40;99.90;;;;;;1042964;28;20021;-68
2022/08/30 00:18:18;;;;;;;2.28;1.40;;;21.40;99.90;;;;;;1042984;28;20028;-68
2022/08/30 00:18:49;;;;;;;2.97;1.70;;;21.40;99.90;;;;;;1043038;28;20021;-68
2022/08/30 00:19:20;;;;;;;2.45;1.77;;;21.40;99.90;;;;;;1042905;28;20031;-69
2022/08/30 00:19:51;;;;;;;1.97;1.47;;;21.40;99.90;;;;;;1042961;28;20032;-69
2022/08/30 00:20:25;;;;;;;3.73;1.30;;;21.40;99.90;;;;;;1042861;28;20018;-68
2022/08/30 00:20:55;;;;;;;2.70;1.40;;;21.40;99.90;;;;;;1042890;28;20025;-68
2022/08/30 00:21:26;;;;;;;2.53;1.50;;;21.40;99.90;;;;;;1042317;28;20044;-68
2022/08/30 00:21:57;;;;;;;3.13;2.00;;;21.40;99.90;;;;;;1042790;28;20119;-68
2022/08/30 00:22:27;;;;;;;2.83;1.57;;;21.40;99.90;;;;;;1042437;28;20138;-68
2022/08/30 00:22:58;;;;;;;3.63;1.73;;;21.30;99.90;;;;;;1042264;28;20070;-68
2022/08/30 00:23:29;;;;;;;1.67;1.23;;;21.30;99.90;;;;;;1042403;28;20499;-69
2022/08/30 00:23:59;;;;;;;3.13;1.87;;;21.30;99.90;;;;;;1042634;28;20451;-69
2022/08/30 00:24:30;;;;;;;2.93;1.63;;;21.30;99.90;;;;;;1042679;28;20019;-68
2022/08/30 00:25:01;;;;;;;2.63;1.30;;;21.30;99.90;;;;;;1042801;28;20021;-67
2022/08/30 00:25:31;;;;;;;2.10;1.40;;;21.30;99.90;;;;;;1042789;28;20021;-68
2022/08/30 00:26:02;;;;;;;2.50;1.33;;;21.30;99.90;;;;;;1042735;28;20021;-69
2022/08/30 00:26:33;;;;;;;1.38;1.27;;;21.30;99.90;;;;;;1042221;28;20915;-68
2022/08/30 00:27:04;;;;;;;3.37;1.70;;;21.30;99.90;;;;;;1042423;28;20126;-68
2022/08/30 00:27:34;;;;;;;2.93;1.40;;;21.30;99.90;;;;;;1042435;28;20074;-67
2022/08/30 00:28:05;;;;;;;3.13;1.80;;;21.30;99.90;;;;;;1042177;28;20021;-68
2022/08/30 00:28:36;;;;;;;2.65;1.60;;;21.30;99.90;;;;;;1042850;28;20067;-69
2022/08/30 00:29:07;;;;;;;1.30;1.10;;;21.30;99.90;;;;;;1042644;28;20108;-68
2022/08/30 00:29:37;;;;;;;2.03;1.90;;;21.30;99.90;;;;;;1042648;28;20387;-68
2022/08/30 00:30:09;;;;;;;2.50;1.60;;;21.30;99.90;;;;;;1042523;28;20736;-68
2022/08/30 00:30:41;;;;;;;2.75;1.80;;;21.30;99.90;;;;;;1042938;28;20033;-69
2022/08/30 00:31:11;;;;;;;1.77;1.33;;;21.20;99.90;;;;;;1042494;28;20024;-69
2022/08/30 00:31:42;;;;;;;2.03;1.37;;;21.30;99.90;;;;;;1042733;28;20030;-68
2022/08/30 00:32:12;;;;;;;2.30;1.30;;;21.30;99.90;;;;;;1042094;28;20017;-68
2022/08/30 00:32:43;;;;;;;3.13;1.43;;;21.30;99.90;;;;;;1042281;28;20120;-68
2022/08/30 00:33:14;;;;;;;2.63;1.73;;;21.30;99.90;;;;;;1042177;28;20025;-66
2022/08/30 00:33:45;;;;;;;1.70;1.17;;;21.30;99.90;;;;;;1042562;28;20958;-68
2022/08/30 00:34:15;;;;;;;2.57;1.47;;;21.20;99.90;;;;;;1042190;28;20049;-68
2022/08/30 00:34:50;;;;;;;2.07;1.40;;;21.20;99.90;;;;;;1042762;28;20029;-68
2022/08/30 00:35:22;;;;;;;2.42;1.30;;;21.20;99.90;;;;;;1042662;28;20394;-68
2022/08/30 00:35:52;;;;;;;2.47;1.67;;;21.20;99.90;;;;;;1042791;28;20100;-68
2022/08/30 00:36:23;;;;;;;2.70;1.33;;;21.30;99.90;;;;;;1042746;28;20024;-68
2022/08/30 00:36:53;;;;;;;3.73;1.47;;;21.30;99.90;;;;;;1042315;28;20388;-69
2022/08/30 00:37:24;;;;;;;1.93;1.50;;;21.30;99.90;;;;;;1042342;28;20635;-69
2022/08/30 00:37:55;;;;;;;1.90;1.43;;;21.30;99.90;;;;;;1042498;28;20032;-69
2022/08/30 00:38:25;;;;;;;2.60;1.47;;;21.30;99.90;;;;;;1041831;28;20021;-69
2022/08/30 00:38:56;;;;;;;2.93;1.90;;;21.30;99.90;;;;;;1042589;28;20031;-69
2022/08/30 00:39:26;;;;;;;2.10;1.60;;;21.30;99.90;;;;;;1042206;28;20103;-68
2022/08/30 00:39:57;;;;;;;2.43;1.60;;;21.30;99.90;;;;;;1042582;28;20163;-68
2022/08/30 00:40:27;;;;;;;2.90;1.60;;;21.30;99.90;;;;;;1042135;28;20056;-68
2022/08/30 00:40:58;;;;;;;2.07;1.47;;;21.30;99.90;;;;;;1038601;28;20029;-67
2022/08/30 00:41:29;;;;;;;2.13;1.50;;;21.30;99.90;;;;;;1037947;28;20851;-68
2022/08/30 00:41:59;;;;;;;4.47;1.30;;;21.30;99.90;;;;;;1034350;28;20033;-68
2022/08/30 00:42:31;;;;;;;2.83;1.37;;;21.30;99.90;;;;;;1034522;28;20057;-68
2022/08/30 00:43:05;;;;;;;2.10;1.55;;;21.30;99.90;;;;;;1042728;28;20052;-69
2022/08/30 00:43:36;;;;;;;2.38;1.55;;;21.30;99.90;;;;;;1042579;28;20059;-68
2022/08/30 00:44:07;;;;;;;2.50;1.48;;;21.30;99.90;;;;;;1042699;28;20013;-68
2022/08/30 00:44:40;;;;;;;4.93;1.60;;;21.30;99.90;;;;;;1042527;28;20044;-68
2022/08/30 00:45:13;;;;;;;1.45;1.27;;;21.30;99.90;;;;;;1042588;28;20016;-68
2022/08/30 00:45:44;;;;;;;3.75;1.58;;;21.30;99.90;;;;;;1042657;28;20084;-68
2022/08/30 00:46:15;;;;;;;3.05;1.63;;;21.30;99.90;;;;;;1043062;28;20028;-68
2022/08/30 00:46:46;;;;;;;2.23;1.30;;;21.30;99.90;;;;;;1042734;28;20025;-68
2022/08/30 00:47:17;;;;;;;2.40;1.40;;;21.30;99.90;;;;;;1043047;28;20027;-68
2022/08/30 00:47:48;;;;;;;2.13;1.35;;;21.30;99.90;;;;;;1042721;28;20031;-68
2022/08/30 00:48:19;;;;;;;2.57;1.40;;;21.30;99.90;;;;;;1043162;28;20028;-69
2022/08/30 00:48:50;;;;;;;2.00;1.60;;;21.30;99.90;;;;;;1038691;28;20527;-68
2022/08/30 00:49:20;;;;;;;1.85;1.33;;;21.30;99.90;;;;;;1040034;28;20811;-67
2022/08/30 00:49:55;;;;;;;1.83;1.50;;;21.30;99.90;;;;;;1042800;28;20537;-68
2022/08/30 00:50:31;;;;;;;2.75;1.73;;;21.30;99.90;;;;;;1042557;28;20013;-68
2022/08/30 00:51:05;;;;;;;2.15;1.60;;;21.30;99.90;;;;;;1042234;28;20024;-68
2022/08/30 00:51:35;;;;;;;2.55;1.45;;;21.30;99.90;;;;;;1042783;28;20141;-68
2022/08/30 00:52:06;;;;;;;2.60;1.50;;;21.30;99.90;;;;;;1042405;28;20017;-69
2022/08/30 00:52:41;;;;;;;3.03;1.50;;;21.30;99.90;;;;;;1042800;28;20051;-68
2022/08/30 00:53:19;;;;;;;2.38;1.45;;;21.30;99.90;;;;;;1042272;28;20494;-68
2022/08/30 00:53:56;;;;;;;3.03;1.40;;;21.30;99.90;;;;;;1042336;28;20020;-68
2022/08/30 00:54:28;;;;;;;2.90;1.55;;;21.30;99.90;;;;;;1042310;28;20484;-69
2022/08/30 00:55:00;;;;;;;2.92;1.42;;;21.30;99.90;;;;;;1044818;28;20056;-69
2022/08/30 00:55:32;;;;;;;1.80;1.30;;;21.20;99.90;;;;;;1046687;28;20032;-67
2022/08/30 00:56:05;;;;;;;1.42;1.27;;;21.20;99.90;;;;;;1046154;28;20012;-67
2022/08/30 00:56:35;;;;;;;1.77;1.48;;;21.20;99.90;;;;;;1042966;28;20013;-68
2022/08/30 00:57:07;;;;;;;3.83;1.70;;;21.20;99.90;;;;;;1042755;28;20009;-68
2022/08/30 00:57:37;;;;;;;1.92;1.45;;;21.20;99.90;;;;;;1042366;28;20013;-69
2022/08/30 00:58:15;;;;;;;1.77;1.50;;;21.20;99.90;;;;;;1042511;28;20108;-68
2022/08/30 00:58:49;;;;;;;1.90;1.65;;;21.20;99.90;;;;;;1042749;28;20481;-69
2022/08/30 00:59:23;;;;;;;2.05;1.45;;;21.20;99.90;;;;;;1042511;28;20419;-67
2022/08/30 00:59:53;;;;;;;2.50;1.65;;;21.20;99.90;;;;;;1043052;28;20025;-67
2022/08/30 01:00:24;;;;;;;4.23;1.40;;;21.20;99.90;;;;;;1042776;28;20017;-67
2022/08/30 01:00:57;;;;;;;1.73;1.20;;;21.20;99.90;;;;;;1042558;28;20013;-67
2022/08/30 01:01:29;;;;;;;2.55;1.50;;;21.20;99.90;;;;;;1042468;28;20013;-68
2022/08/30 01:02:01;;;;;;;2.55;1.33;;;21.20;99.90;;;;;;1042804;28;20012;-68
2022/08/30 01:02:32;;;;;;;1.98;1.38;;;21.20;99.90;;;;;;1042290;28;20636;-67
2022/08/30 01:03:03;;;;;;;1.50;1.30;;;21.20;99.90;;;;;;1043207;28;20352;-67
2022/08/30 01:03:35;;;;;;;2.37;1.60;;;21.20;99.90;;;;;;1042742;28;20009;-68
2022/08/30 01:04:07;;;;;;;2.13;1.30;;;21.20;99.90;;;;;;1042475;28;20516;-68
2022/08/30 01:04:42;;;;;;;1.98;1.48;;;21.10;99.90;;;;;;1042559;28;20356;-67
2022/08/30 01:05:13;;;;;;;2.63;1.83;;;21.10;99.90;;;;;;1042495;28;20033;-67
2022/08/30 01:05:44;;;;;;;3.00;1.60;;;21.10;99.90;;;;;;1039312;28;20010;-67
2022/08/30 01:06:16;;;;;;;1.75;1.48;;;21.10;99.90;;;;;;1038753;28;20108;-68
2022/08/30 01:06:47;;;;;;;1.40;1.30;;;21.10;99.90;;;;;;1038411;28;20056;-68
2022/08/30 01:07:18;;;;;;;1.97;1.60;;;21.10;99.90;;;;;;1040623;28;20068;-68
2022/08/30 01:07:49;;;;;;;2.17;1.70;;;21.10;99.90;;;;;;1042667;28;20021;-68
2022/08/30 01:08:22;;;;;;;1.90;1.60;;;21.10;99.90;;;;;;1043047;28;20255;-68
2022/08/30 01:08:53;;;;;;;3.28;1.50;;;21.10;99.90;;;;;;1042096;28;20362;-68
2022/08/30 01:09:24;;;;;;;2.67;1.30;;;21.10;99.90;;;;;;1042603;28;20399;-68
2022/08/30 01:09:54;;;;;;;1.97;1.67;;;21.10;99.90;;;;;;1042455;28;20325;-68
2022/08/30 01:10:25;;;;;;;1.80;1.67;;;21.10;99.90;;;;;;1042772;28;20021;-68
2022/08/30 01:10:57;;;;;;;2.77;1.80;;;21.10;99.90;;;;;;1043425;28;20025;-68
2022/08/30 01:11:30;;;;;;;2.00;1.65;;;21.10;99.90;;;;;;1043715;28;20013;-67
2022/08/30 01:12:02;;;;;;;2.70;1.60;;;21.10;99.90;;;;;;1043659;28;20084;-68
2022/08/30 01:12:33;;;;;;;2.72;1.70;;;21.10;99.90;;;;;;1043238;28;20099;-68
2022/08/30 01:13:04;;;;;;;2.87;2.00;;;21.10;99.90;;;;;;1043105;28;20017;-67
2022/08/30 01:13:35;;;;;;;3.22;1.70;;;21.10;99.90;;;;;;1043474;28;20539;-68
2022/08/30 01:14:06;;;;;;;1.93;1.50;;;21.10;99.90;;;;;;1043043;28;20041;-68
2022/08/30 01:14:37;;;;;;;2.70;1.40;;;21.10;99.90;;;;;;1040679;28;20020;-68
2022/08/30 01:15:09;;;;;;;3.50;1.60;;;21.10;99.90;;;;;;1034902;28;20022;-67
2022/08/30 01:15:42;;;;;;;3.05;1.42;;;21.10;99.90;;;;;;1035149;28;20018;-69
2022/08/30 01:16:13;;;;;;;1.83;1.40;;;21.10;99.90;;;;;;1036367;28;20022;-68
2022/08/30 01:16:45;;;;;;;2.20;1.30;;;21.10;99.90;;;;;;1039976;28;20013;-68
2022/08/30 01:17:17;;;;;;;1.90;1.40;;;21.10;99.90;;;;;;1043231;28;20039;-67
2022/08/30 01:17:48;;;;;;;1.63;1.23;;;21.10;99.90;;;;;;1039607;28;20103;-68
2022/08/30 01:18:19;;;;;;;2.25;1.60;;;21.10;99.90;;;;;;1043100;28;20092;-68
2022/08/30 01:18:52;;;;;;;2.35;1.70;;;21.10;99.90;;;;;;1043331;28;20024;-68
2022/08/30 01:19:35;;;;;;;2.03;1.83;;;21.10;99.90;;;;;;1041929;28;20053;-69
2022/08/30 01:20:10;;;;;;;3.58;1.58;;;21.10;99.90;;;;;;1041952;28;20056;-68
2022/08/30 01:20:52;;;;;;;1.45;1.20;;;21.10;99.90;;;;;;1038973;28;20014;-69
2022/08/30 01:21:43;;;;;;;1.90;1.20;;;21.10;99.90;;;;;;1040653;28;20681;-69
2022/08/30 01:22:29;;;;;;;2.88;1.70;;;21.10;99.90;;;;;;1039099;28;20523;-68
2022/08/30 01:23:09;;;;;;;1.67;1.55;;;21.10;99.90;;;;;;1038789;28;20040;-68
2022/08/30 01:23:42;;;;;;;1.73;1.40;;;21.10;99.90;;;;;;1038784;28;20024;-68
2022/08/30 01:24:13;;;;;;;1.63;1.20;;;21.10;99.90;;;;;;1038979;28;20411;-68
2022/08/30 01:24:46;;;;;;;3.20;1.40;;;21.10;99.90;;;;;;1042885;28;20098;-68
2022/08/30 01:25:24;;;;;;;2.95;1.75;;;21.10;99.90;;;;;;1043377;28;20078;-68
2022/08/30 01:25:55;;;;;;;1.30;1.15;;;21.10;99.90;;;;;;1043253;28;20013;-68
2022/08/30 01:26:28;;;;;;;1.60;1.50;;;21.10;99.90;;;;;;1043346;28;20051;-68
2022/08/30 01:26:59;;;;;;;2.38;1.55;;;21.10;99.90;;;;;;1043318;28;20021;-69
2022/08/30 01:27:30;;;;;;;2.93;1.70;;;21.10;99.90;;;;;;1043333;28;20032;-68
2022/08/30 01:28:07;;;;;;;2.33;1.25;;;21.10;99.90;;;;;;1043200;28;20021;-68
2022/08/30 01:28:39;;;;;;;3.20;2.00;;;21.10;99.90;;;;;;1043451;28;20017;-68
2022/08/30 01:29:18;;;;;;;1.70;1.42;;;21.10;99.90;;;;;;1043333;28;20082;-68
2022/08/30 01:29:50;;;;;;;1.80;1.48;;;21.10;99.90;;;;;;1040768;28;20491;-68
2022/08/30 01:30:22;;;;;;;2.42;1.40;;;21.10;99.90;;;;;;1043419;28;20133;-68
2022/08/30 01:30:53;;;;;;;2.55;1.48;;;21.10;99.90;;;;;;1043148;28;20028;-69
2022/08/30 01:31:24;;;;;;;1.80;1.20;;;21.10;99.90;;;;;;1043349;28;20021;-68
2022/08/30 01:31:55;;;;;;;2.57;1.60;;;21.10;99.90;;;;;;1043149;28;20021;-67
2022/08/30 01:32:28;;;;;;;1.50;1.40;;;21.10;99.90;;;;;;1043383;28;20013;-68
2022/08/30 01:33:01;;;;;;;4.88;1.88;;;21.10;99.90;;;;;;1043112;28;21010;-68
2022/08/30 01:33:36;;;;;;;1.88;1.35;;;21.10;99.90;;;;;;1042894;28;20479;-68
2022/08/30 01:34:07;;;;;;;3.00;1.88;;;21.10;99.90;;;;;;1042819;28;20071;-68
2022/08/30 01:34:37;;;;;;;1.50;1.37;;;21.10;99.90;;;;;;1042620;28;20111;-68
2022/08/30 01:35:09;;;;;;;2.57;1.30;;;21.10;99.90;;;;;;1042689;28;20025;-68
2022/08/30 01:35:52;;;;;;;2.63;1.83;;;21.10;99.90;;;;;;1043227;28;20079;-69
2022/08/30 01:36:23;;;;;;;1.92;1.70;;;21.10;99.90;;;;;;1040518;28;20020;-68
2022/08/30 01:36:54;;;;;;;2.05;1.50;;;21.00;99.90;;;;;;1042968;28;20360;-68
2022/08/30 01:37:29;;;;;;;1.73;1.27;;;21.00;99.90;;;;;;1042820;28;20337;-68
2022/08/30 01:38:00;;;;;;;2.92;1.52;;;21.10;99.90;;;;;;1043380;28;20009;-68
2022/08/30 01:38:38;;;;;;;2.75;1.45;;;21.00;99.90;;;;;;1043333;28;20374;-68
2022/08/30 01:39:12;;;;;;;2.15;1.48;;;21.00;99.90;;;;;;1043429;28;20024;-68
2022/08/30 01:39:45;;;;;;;1.42;1.23;;;21.00;99.90;;;;;;1043629;28;20056;-68
2022/08/30 01:40:17;;;;;;;2.17;1.40;;;21.00;99.90;;;;;;1043217;28;20016;-68
2022/08/30 01:40:49;;;;;;;1.65;1.08;;;21.00;99.90;;;;;;1043201;28;20024;-68
2022/08/30 01:41:29;;;;;;;1.70;1.50;;;21.00;99.90;;;;;;1042927;28;20620;-69
2022/08/30 01:42:01;;;;;;;3.05;1.30;;;21.00;99.90;;;;;;1043263;28;20013;-68
2022/08/30 01:42:32;;;;;;;1.52;1.38;;;21.00;99.90;;;;;;1042917;28;20023;-68
2022/08/30 01:43:03;;;;;;;1.70;1.30;;;21.00;99.90;;;;;;1037945;28;20013;-69
2022/08/30 01:43:33;;;;;;;2.80;1.40;;;21.00;99.90;;;;;;1037666;28;20096;-68
2022/08/30 01:44:07;;;;;;;2.73;1.47;;;21.00;99.90;;;;;;1039266;28;20024;-67
2022/08/30 01:44:38;;;;;;;1.42;1.30;;;21.00;99.90;;;;;;1042662;28;20028;-68
2022/08/30 01:45:10;;;;;;;1.85;1.45;;;21.00;99.90;;;;;;1043599;28;20043;-68
2022/08/30 01:45:41;;;;;;;1.73;1.35;;;21.00;99.90;;;;;;1043465;28;20064;-68
2022/08/30 01:46:13;;;;;;;1.90;1.50;;;21.00;99.90;;;;;;1043263;28;20048;-68
2022/08/30 01:46:46;;;;;;;2.80;1.50;;;21.00;99.90;;;;;;1043159;28;20009;-68
2022/08/30 01:47:18;;;;;;;3.30;1.40;;;20.90;99.90;;;;;;1043508;28;20009;-68
2022/08/30 01:47:49;;;;;;;3.28;1.80;;;20.90;99.90;;;;;;1043403;28;20672;-68
2022/08/30 01:48:20;;;;;;;1.35;1.25;;;20.90;99.90;;;;;;1043424;28;20501;-68
2022/08/30 01:48:53;;;;;;;2.40;1.73;;;21.00;99.90;;;;;;1043127;28;20096;-67
2022/08/30 01:49:24;;;;;;;2.30;1.58;;;21.00;99.90;;;;;;1043440;28;20017;-68
2022/08/30 01:49:54;;;;;;;1.73;1.30;;;20.90;99.90;;;;;;1043282;28;20017;-69
2022/08/30 01:50:25;;;;;;;2.30;1.40;;;20.90;99.90;;;;;;1043493;28;20752;-69
2022/08/30 01:50:55;;;;;;;1.37;1.27;;;20.90;99.90;;;;;;1043072;28;20069;-69
2022/08/30 01:51:27;;;;;;;2.97;1.67;;;20.90;99.90;;;;;;1043093;28;20383;-68
2022/08/30 01:51:57;;;;;;;2.28;1.67;;;20.90;99.90;;;;;;1043105;28;20023;-68
2022/08/30 01:52:28;;;;;;;2.87;1.67;;;20.90;99.90;;;;;;1043279;28;20047;-68
2022/08/30 01:52:59;;;;;;;2.40;1.65;;;20.90;99.90;;;;;;1042930;28;20059;-68
2022/08/30 01:53:31;;;;;;;1.63;1.20;;;20.90;99.90;;;;;;1043035;28;20017;-68
2022/08/30 01:54:02;;;;;;;3.40;1.60;;;20.90;99.90;;;;;;1043076;28;20025;-68
2022/08/30 01:54:36;;;;;;;2.00;1.50;;;20.90;99.90;;;;;;1043215;28;20017;-68
2022/08/30 01:55:07;;;;;;;2.05;1.60;;;20.90;99.90;;;;;;1043159;28;20009;-68
2022/08/30 01:55:37;;;;;;;1.65;1.20;;;20.90;99.90;;;;;;1043511;28;20009;-68
2022/08/30 01:56:09;;;;;;;2.73;1.70;;;20.90;99.90;;;;;;1043208;28;20021;-68
2022/08/30 01:56:40;;;;;;;1.63;1.42;;;20.90;99.90;;;;;;1043470;28;20017;-68
2022/08/30 01:57:15;;;;;;;2.78;1.63;;;20.90;99.90;;;;;;1043300;28;20009;-68
2022/08/30 01:57:46;;;;;;;2.75;1.42;;;20.90;99.90;;;;;;1043640;28;20664;-68
2022/08/30 01:58:16;;;;;;;3.03;1.83;;;20.90;99.90;;;;;;1043202;28;20059;-68
2022/08/30 01:58:47;;;;;;;1.90;1.50;;;20.90;99.90;;;;;;1043002;28;20017;-69
2022/08/30 01:59:18;;;;;;;1.97;1.63;;;20.90;99.90;;;;;;1043053;28;20027;-69
2022/08/30 01:59:49;;;;;;;2.70;1.63;;;20.90;99.90;;;;;;1043177;28;20027;-68
2022/08/30 02:00:19;;;;;;;1.88;1.63;;;20.90;99.90;;;;;;1042921;28;20116;-68
2022/08/30 02:00:50;;;;;;;1.43;1.30;;;20.90;99.90;;;;;;1043307;28;20067;-68
2022/08/30 02:01:23;;;;;;;2.20;1.50;;;20.90;99.90;;;;;;1042943;28;20091;-68
2022/08/30 02:01:54;;;;;;;2.72;1.73;;;20.90;99.90;;;;;;1043187;28;20009;-68
2022/08/30 02:02:28;;;;;;;1.93;1.70;;;20.90;99.90;;;;;;1043333;28;20009;-68
2022/08/30 02:02:58;;;;;;;2.13;1.70;;;20.90;99.90;;;;;;1043519;28;20009;-67
2022/08/30 02:03:33;;;;;;;1.50;1.40;;;20.90;99.90;;;;;;1041320;28;20020;-68
2022/08/30 02:04:05;;;;;;;2.40;1.60;;;20.90;99.90;;;;;;1042656;28;20013;-68
2022/08/30 02:04:35;;;;;;;1.73;1.45;;;20.90;99.90;;;;;;1038950;28;20064;-68
2022/08/30 02:05:06;;;;;;;2.47;1.57;;;21.00;99.90;;;;;;1039605;28;20448;-68
2022/08/30 02:05:37;;;;;;;1.63;1.50;;;20.90;99.90;;;;;;1042887;28;20009;-67
2022/08/30 02:06:11;;;;;;;1.97;1.33;;;20.90;99.90;;;;;;1043282;28;20108;-67
2022/08/30 02:06:43;;;;;;;2.10;1.38;;;20.90;99.90;;;;;;1043348;28;20275;-67
2022/08/30 02:07:14;;;;;;;2.35;1.70;;;20.90;99.90;;;;;;1040517;28;20506;-68
2022/08/30 02:07:45;;;;;;;2.05;1.30;;;20.90;99.90;;;;;;1038896;28;20084;-68
2022/08/30 02:08:15;;;;;;;2.20;1.60;;;20.90;99.90;;;;;;1039136;28;20044;-68
2022/08/30 02:08:47;;;;;;;1.60;1.47;;;20.90;99.90;;;;;;1039205;28;20048;-67
2022/08/30 02:09:17;;;;;;;1.88;1.55;;;20.90;99.90;;;;;;1043098;28;20013;-69
2022/08/30 02:09:48;;;;;;;2.43;1.50;;;20.90;99.90;;;;;;1039205;28;20021;-68
2022/08/30 02:10:19;;;;;;;1.52;1.42;;;20.90;99.90;;;;;;1041001;28;20014;-68
2022/08/30 02:10:50;;;;;;;3.53;1.67;;;20.90;99.90;;;;;;1043114;28;20016;-68
2022/08/30 02:11:20;;;;;;;2.37;1.80;;;20.90;99.90;;;;;;1043700;28;20005;-68
2022/08/30 02:11:51;;;;;;;3.07;1.77;;;20.90;99.90;;;;;;1043169;28;20620;-68
2022/08/30 02:12:22;;;;;;;2.37;1.43;;;20.90;99.90;;;;;;1043452;28;20093;-69
2022/08/30 02:12:52;;;;;;;2.17;1.60;;;20.90;99.90;;;;;;1041109;28;20017;-68
2022/08/30 02:13:23;;;;;;;2.17;1.30;;;20.90;99.90;;;;;;1043422;28;20062;-69
2022/08/30 02:13:53;;;;;;;2.03;1.47;;;20.90;99.90;;;;;;1043110;28;20005;-68
2022/08/30 02:14:24;;;;;;;2.33;1.60;;;20.90;99.90;;;;;;1043604;28;20005;-67
2022/08/30 02:14:55;;;;;;;1.63;1.40;;;20.90;99.90;;;;;;1042790;28;20021;-67
2022/08/30 02:15:25;;;;;;;1.33;1.23;;;20.90;99.90;;;;;;1043040;28;20009;-67
2022/08/30 02:15:56;;;;;;;2.77;2.33;;;20.90;99.90;;;;;;1043332;28;20047;-68
2022/08/30 02:16:27;;;;;;;2.60;1.40;;;20.90;99.90;;;;;;1042837;28;20025;-67
2022/08/30 02:16:57;;;;;;;1.50;1.33;;;20.90;99.90;;;;;;1043408;28;20070;-67
2022/08/30 02:17:28;;;;;;;1.50;1.40;;;20.90;99.90;;;;;;1043373;28;20025;-68
2022/08/30 02:17:59;;;;;;;1.60;1.47;;;20.90;99.90;;;;;;1043625;28;20017;-67
2022/08/30 02:18:32;;;;;;;1.52;1.30;;;20.80;99.90;;;;;;1043195;28;20021;-68
2022/08/30 02:19:03;;;;;;;3.08;1.80;;;20.90;99.90;;;;;;1043548;28;20027;-68
2022/08/30 02:19:34;;;;;;;1.77;1.60;;;20.90;99.90;;;;;;1043210;28;20070;-68
2022/08/30 02:20:06;;;;;;;2.00;1.63;;;20.80;99.90;;;;;;1043663;28;20027;-67
2022/08/30 02:20:38;;;;;;;2.47;1.30;;;20.90;99.90;;;;;;1038802;28;20108;-68
2022/08/30 02:21:09;;;;;;;2.40;1.45;;;20.80;99.90;;;;;;1038813;28;20217;-68
2022/08/30 02:21:39;;;;;;;1.50;1.40;;;20.80;99.90;;;;;;1034515;28;20030;-68
2022/08/30 02:22:10;;;;;;;3.73;1.97;;;20.80;99.90;;;;;;1035291;28;20014;-69
2022/08/30 02:22:41;;;;;;;2.33;1.50;;;20.80;99.90;;;;;;1039046;28;20115;-69
2022/08/30 02:23:11;;;;;;;1.70;1.30;;;20.80;99.90;;;;;;1038967;28;20020;-68
2022/08/30 02:23:42;;;;;;;2.43;1.53;;;20.80;99.90;;;;;;1042870;28;20427;-68
2022/08/30 02:24:13;;;;;;;1.95;1.55;;;20.80;99.90;;;;;;1038802;28;20013;-68
2022/08/30 02:24:44;;;;;;;2.47;1.73;;;20.80;99.90;;;;;;1038956;28;20013;-69
2022/08/30 02:25:14;;;;;;;1.50;1.40;;;20.80;99.90;;;;;;1043032;28;20024;-68
2022/08/30 02:25:45;;;;;;;1.27;1.10;;;20.80;99.90;;;;;;1042921;28;20600;-68
2022/08/30 02:26:17;;;;;;;2.05;1.55;;;20.80;99.90;;;;;;1042839;28;20048;-68
2022/08/30 02:26:48;;;;;;;1.65;1.55;;;20.80;99.90;;;;;;1042942;28;20021;-68
2022/08/30 02:27:18;;;;;;;2.20;1.30;;;20.80;99.90;;;;;;1043063;28;20013;-69
2022/08/30 02:27:49;;;;;;;3.27;1.50;;;20.80;99.90;;;;;;1042968;28;20025;-68
2022/08/30 02:28:19;;;;;;;4.00;1.90;;;20.80;99.90;;;;;;1043071;28;20013;-68
2022/08/30 02:28:50;;;;;;;3.20;1.93;;;20.80;99.90;;;;;;1042872;28;20619;-68
2022/08/30 02:29:22;;;;;;;2.55;1.52;;;20.80;99.90;;;;;;1043044;28;20043;-69
2022/08/30 02:29:53;;;;;;;2.05;1.40;;;20.80;99.90;;;;;;1042819;28;20086;-68
2022/08/30 02:30:24;;;;;;;2.67;1.60;;;20.80;99.90;;;;;;1042997;28;20494;-68
2022/08/30 02:30:54;;;;;;;1.50;1.33;;;20.80;99.90;;;;;;1042661;28;20613;-68
2022/08/30 02:31:25;;;;;;;1.53;1.43;;;20.80;99.90;;;;;;1042904;28;20021;-68
2022/08/30 02:31:56;;;;;;;2.03;1.60;;;20.80;99.90;;;;;;1042964;28;20450;-69
2022/08/30 02:32:26;;;;;;;1.97;1.30;;;20.80;99.90;;;;;;1043397;28;20021;-68
2022/08/30 02:32:57;;;;;;;2.13;1.63;;;20.80;99.90;;;;;;1043162;28;20033;-68
2022/08/30 02:33:28;;;;;;;2.43;1.60;;;20.70;99.90;;;;;;1042993;28;20116;-68
2022/08/30 02:33:59;;;;;;;2.40;1.60;;;20.80;99.90;;;;;;1042892;28;20021;-68
2022/08/30 02:34:29;;;;;;;1.58;1.38;;;20.80;99.90;;;;;;1042849;28;20841;-68
2022/08/30 02:35:00;;;;;;;2.50;1.50;;;20.80;99.90;;;;;;1043003;28;20021;-68
2022/08/30 02:35:30;;;;;;;2.23;1.40;;;20.80;99.90;;;;;;1042908;28;20032;-68
2022/08/30 02:36:01;;;;;;;1.50;1.30;;;20.80;99.90;;;;;;1042798;28;20045;-68
2022/08/30 02:36:32;;;;;;;2.58;1.40;;;20.80;99.90;;;;;;1043018;28;20442;-68
2022/08/30 02:37:03;;;;;;;2.23;1.50;;;20.80;99.90;;;;;;1042894;28;20029;-68
2022/08/30 02:37:34;;;;;;;1.63;1.38;;;20.80;99.90;;;;;;1043413;28;20025;-68
2022/08/30 02:38:05;;;;;;;2.43;1.70;;;20.80;99.90;;;;;;1043274;28;20021;-68
2022/08/30 02:38:36;;;;;;;1.43;1.30;;;20.80;99.90;;;;;;1043451;28;20041;-68
2022/08/30 02:39:07;;;;;;;1.53;1.43;;;20.80;99.90;;;;;;1043169;28;20701;-68
2022/08/30 02:39:38;;;;;;;3.45;1.88;;;20.80;99.90;;;;;;1043516;28;20071;-68
2022/08/30 02:40:09;;;;;;;1.67;1.57;;;20.80;99.90;;;;;;1042658;28;20021;-68
2022/08/30 02:40:40;;;;;;;1.83;1.50;;;20.80;99.90;;;;;;1043188;28;20147;-68
2022/08/30 02:41:11;;;;;;;2.37;1.67;;;20.80;99.90;;;;;;1042956;28;20134;-68
2022/08/30 02:41:41;;;;;;;3.23;1.70;;;20.80;99.90;;;;;;1042496;28;20341;-67
2022/08/30 02:42:12;;;;;;;1.77;1.57;;;20.80;99.90;;;;;;1043343;28;20074;-68
2022/08/30 02:42:43;;;;;;;1.60;1.50;;;20.80;99.90;;;;;;1043317;28;20134;-67
2022/08/30 02:43:14;;;;;;;1.67;1.20;;;20.80;99.90;;;;;;1043248;28;20104;-68
2022/08/30 02:43:45;;;;;;;1.98;1.45;;;20.80;99.90;;;;;;1043412;28;20021;-67
2022/08/30 02:44:15;;;;;;;1.73;1.30;;;20.80;99.90;;;;;;1043371;28;20021;-69
2022/08/30 02:44:46;;;;;;;1.83;1.40;;;20.80;99.90;;;;;;1042803;28;20036;-68
2022/08/30 02:45:16;;;;;;;2.50;1.67;;;20.80;99.90;;;;;;1042842;28;20140;-68
2022/08/30 02:45:47;;;;;;;1.80;1.30;;;20.80;99.90;;;;;;1042830;28;20029;-68
2022/08/30 02:46:18;;;;;;;1.33;1.20;;;20.80;99.90;;;;;;1042931;28;20052;-68
2022/08/30 02:46:49;;;;;;;2.90;1.42;;;20.80;99.90;;;;;;1042614;28;20032;-68